createdAt,value
2023-02-23T08:24:05.137Z,443.00
2023-02-23T08:25:05.049Z,441.00
2023-02-23T08:26:05.027Z,438.00
2023-02-23T08:27:05.001Z,438.00
2023-02-23T08:28:05.021Z,442.00
2023-02-23T08:29:05.003Z,445.00
2023-02-23T08:30:05.043Z,441.00
2023-02-23T08:31:05.028Z,443.00
2023-02-23T08:32:05.047Z,444.00
2023-02-23T08:33:04.936Z,447.00
2023-02-23T08:34:04.898Z,449.00
2023-02-23T08:35:04.881Z,447.00
2023-02-23T08:36:04.903Z,445.00
2023-02-23T08:37:04.902Z,445.00
2023-02-23T08:38:04.881Z,446.00
2023-02-23T08:39:04.860Z,446.00
2023-02-23T08:40:04.841Z,444.00
2023-02-23T08:41:04.839Z,444.00
2023-02-23T08:42:04.806Z,444.00
2023-02-23T08:43:04.810Z,443.00
2023-02-23T08:44:04.789Z,445.00
2023-02-23T08:45:04.767Z,446.00
2023-02-23T08:46:04.820Z,445.00
2023-02-23T08:47:04.743Z,445.00
2023-02-23T08:48:04.750Z,444.00
2023-02-23T08:49:04.695Z,443.00
2023-02-23T08:50:04.673Z,445.00
2023-02-23T08:51:04.689Z,442.00
2023-02-23T08:52:04.696Z,444.00
2023-02-23T08:53:04.634Z,441.00
2023-02-23T08:54:04.652Z,442.00
2023-02-23T08:55:04.604Z,440.00
2023-02-23T08:56:04.586Z,439.00
2023-02-23T08:57:04.572Z,439.00
2023-02-23T08:58:04.563Z,440.00
2023-02-23T08:59:04.554Z,442.00
2023-02-23T09:00:04.568Z,444.00
2023-02-23T09:01:04.612Z,446.00
2023-02-23T09:02:04.809Z,449.00
2023-02-23T09:03:04.501Z,448.00
2023-02-23T09:04:04.509Z,444.00
2023-02-23T09:05:04.524Z,445.00
2023-02-23T09:06:04.492Z,446.00
2023-02-23T09:07:04.487Z,446.00
2023-02-23T09:08:04.487Z,444.00
2023-02-23T09:09:04.425Z,443.00
2023-02-23T09:10:04.392Z,446.00
2023-02-23T09:11:04.435Z,447.00
2023-02-23T09:12:04.378Z,445.00
2023-02-23T09:13:04.382Z,447.00
2023-02-23T09:14:04.367Z,445.00
2023-02-23T09:15:04.325Z,445.00
2023-02-23T09:16:04.473Z,445.00
2023-02-23T09:17:04.354Z,444.00
2023-02-23T09:18:04.329Z,446.00
2023-02-23T09:19:04.363Z,448.00
2023-02-23T09:20:04.277Z,447.00
2023-02-23T09:21:04.285Z,446.00
2023-02-23T09:22:04.230Z,446.00
2023-02-23T09:23:04.249Z,444.00
2023-02-23T09:24:04.225Z,444.00
2023-02-23T09:25:04.223Z,443.00
2023-02-23T09:26:04.241Z,441.00
2023-02-23T09:27:04.200Z,441.00
2023-02-23T09:28:04.182Z,440.00
2023-02-23T09:29:04.175Z,440.00
2023-02-23T09:30:04.183Z,440.00
2023-02-23T09:31:04.237Z,441.00
2023-02-23T09:32:04.272Z,443.00
2023-02-23T09:33:04.099Z,443.00
2023-02-23T09:34:04.099Z,444.00
2023-02-23T09:35:04.111Z,447.00
2023-02-23T09:36:04.052Z,447.00
2023-02-23T09:37:04.068Z,449.00
2023-02-23T09:38:04.048Z,450.00
2023-02-23T09:39:04.036Z,449.00
2023-02-23T09:40:04.047Z,450.00
2023-02-23T09:41:04.008Z,450.00
2023-02-23T09:42:04.001Z,448.00
2023-02-23T09:43:04.006Z,446.00
2023-02-23T09:44:03.938Z,444.00
2023-02-23T09:45:03.956Z,445.00
2023-02-23T09:46:03.951Z,447.00
2023-02-23T09:47:03.925Z,446.00
2023-02-23T09:48:03.896Z,447.00
2023-02-23T09:49:03.877Z,448.00
2023-02-23T09:50:03.884Z,448.00
2023-02-23T09:51:03.835Z,449.00
